KAUO/AUO METAR and TAF weather

Enter ICAO airport designator
Station Type Date Time Source
KAUO METAR 2021/04/13 21:56 UTC NOAA

KAUO 132156Z AUTO 22005KT 10SM CLR 28/09 A3004 RMK AO2 SLP186 T02830089


Station Type Date Time Source
KAUO Decoded METAR 2021/04/13 21:56 UTC NOAA

Auburn-Opelika Airport, AL, United States (KAUO) 32-37N 085-26W
Apr 13, 2021 - 05:56 PM EDT / 2021.04.13 2156 UTC
Wind: from the SW (220 degrees) at 6 MPH (5 KT):0
Visibility: 10 mile(s):0
Sky conditions: clear
Temperature: 82.9 F (28.3 C)
Dew Point: 48.0 F (8.9 C)
Relative Humidity: 29%
Pressure (altimeter): 30.04 in. Hg (1017 hPa)
ob: KAUO 132156Z AUTO 22005KT 10SM CLR 28/09 A3004 RMK AO2 SLP186 T02830089
cycle: 22

Station Type Date Time Source
KAUO TAF UTC NOAA

Error!

Example: see airport list